»·PEaware :: AAL68 KMIA-LEMD

AAL68 :: KMIA-LEMD

FLIGHT INFORMATION

Flight Status: Arrived
Operator:
American Airlines
More flights by this operator :: More flights under this callsign
Pilot: Drew L. (13237)
Aircraft: BOEING 767-300
(B763)
More flights by this aircraft type
Origin: KMIA Miami Intl
United States
Destination: LEMD Barajas
Spain
More flights between these airports :: More routes between these airports
Route: PADUS2 PADUS BR66V ZFP CNNOR M328 BDA 35N060W 39N050W 42N040W 43N030W 43N020W ARMED PRT CANAR ADORO UL155 ZMR
File this flight plan on PilotEdge
Remarks: Sample flight plan
Altitude:
(Current/Filed)
31,000ft
Speed:
(Current/Filed)
550kts
Departed: 15-Jun-17 02:04 PM
Arrived: 15-Jun-17 10:16 PM
Distance/Time
Traveled:
3834nm/8:12
Distance/Time
To Go:
Arrived

Flight Plot

Page will automatically refresh every two minutes.

Flight plan parsing failed; only flown route is shown


Map Options




Map Legend


Flown Route
Filed Route
Departure Airport
Arrival Airport
Navaid (VOR, NDB)
Fix

Horizontal Profiles

Position Reports

Time Latitude Longitude Heading Altitude Ground
Speed
15-Jun-17 13:57 25.798756 -80.284145 177 17ft 3kts
15-Jun-17 13:58 25.799275 -80.283754 262 17ft 2kts
15-Jun-17 13:59 25.799276 -80.283578 274 17ft 0kts
15-Jun-17 14:00 25.799276 -80.283578 274 17ft 0kts
15-Jun-17 14:01 25.799296 -80.283841 276 17ft 5kts
15-Jun-17 14:02 25.799333 -80.288199 267 17ft 19kts
15-Jun-17 14:03 25.799093 -80.293618 267 17ft 15kts
15-Jun-17 14:04 25.799700 -80.299308 284 17ft 21kts
15-Jun-17 14:05 25.800697 -80.300910 80 17ft 0kts
15-Jun-17 14:06 25.801683 -80.277390 88 90ft 186kts
15-Jun-17 14:07 25.805081 -80.208698 89 2657ft 252kts
15-Jun-17 14:08 25.807699 -80.129984 88 5750ft 263kts
15-Jun-17 14:09 25.814521 -80.047793 62 8613ft 279kts
15-Jun-17 14:10 25.862663 -79.975081 53 10598ft 329kts
15-Jun-17 14:11 25.924534 -79.885340 52 12724ft 383kts
15-Jun-17 14:12 25.990508 -79.789629 52 15682ft 400kts
15-Jun-17 14:13 26.057709 -79.688992 53 18332ft 417kts
15-Jun-17 14:14 26.120685 -79.579767 60 20746ft 432kts
15-Jun-17 14:15 26.179922 -79.460865 60 22985ft 446kts
15-Jun-17 14:17 26.239904 -79.339820 61 25003ft 459kts
15-Jun-17 14:18 26.302270 -79.213580 61 26845ft 471kts
15-Jun-17 14:19 26.365777 -79.084676 61 28509ft 484kts
15-Jun-17 14:20 26.431064 -78.951841 61 30072ft 494kts
15-Jun-17 14:21 26.497454 -78.816344 61 31037ft 499kts
15-Jun-17 14:22 26.560658 -78.681247 68 31046ft 492kts
15-Jun-17 14:23 26.610511 -78.538969 69 31048ft 493kts
15-Jun-17 14:24 26.660086 -78.395868 69 31050ft 493kts
15-Jun-17 14:25 26.708521 -78.255427 69 31047ft 494kts
15-Jun-17 14:26 26.757746 -78.112146 69 31048ft 494kts
15-Jun-17 14:27 26.806890 -77.968555 69 31049ft 495kts
15-Jun-17 14:28 26.855852 -77.824946 69 31049ft 495kts
15-Jun-17 14:29 26.904797 -77.680832 69 31050ft 495kts
15-Jun-17 14:30 26.953416 -77.537127 69 31050ft 495kts
15-Jun-17 14:31 27.001817 -77.393513 69 31050ft 495kts
15-Jun-17 14:32 27.050297 -77.249127 69 31048ft 495kts
15-Jun-17 14:33 27.098543 -77.104855 69 31049ft 495kts
15-Jun-17 14:34 27.146607 -76.960561 69 31047ft 496kts
15-Jun-17 14:35 27.194621 -76.815853 69 31048ft 496kts
15-Jun-17 14:36 27.242552 -76.670820 69 31048ft 496kts
15-Jun-17 14:37 27.290446 -76.525322 69 31049ft 496kts
15-Jun-17 14:38 27.338095 -76.379986 69 31049ft 496kts
15-Jun-17 14:39 27.385605 -76.234479 70 31047ft 496kts
15-Jun-17 14:40 27.433005 -76.088731 70 31048ft 497kts
15-Jun-17 14:41 27.480172 -75.943108 70 31048ft 497kts
15-Jun-17 14:42 27.527267 -75.797112 70 31049ft 497kts
15-Jun-17 14:43 27.574173 -75.651107 70 31049ft 497kts
15-Jun-17 14:44 27.621045 -75.504604 70 31050ft 497kts
15-Jun-17 14:45 27.667685 -75.358215 70 31050ft 497kts
15-Jun-17 14:46 27.714292 -75.211335 70 31048ft 497kts
15-Jun-17 14:47 27.760550 -75.064934 70 31048ft 497kts
15-Jun-17 14:48 27.806751 -74.918097 70 31049ft 497kts
15-Jun-17 14:49 27.865861 -74.777801 56 31058ft 497kts
15-Jun-17 14:50 27.941720 -74.647532 56 31049ft 497kts
15-Jun-17 14:51 28.017587 -74.516978 56 31050ft 497kts
15-Jun-17 14:52 28.093235 -74.386414 56 31051ft 497kts
15-Jun-17 14:53 28.168956 -74.255342 56 31047ft 497kts
15-Jun-17 14:54 28.244450 -74.124250 56 31047ft 497kts
15-Jun-17 14:55 28.319812 -73.992957 56 31048ft 497kts
15-Jun-17 14:56 28.394951 -73.861651 56 31048ft 498kts
15-Jun-17 14:57 28.470127 -73.729869 56 31049ft 498kts
15-Jun-17 14:58 28.545115 -73.598004 56 31049ft 498kts
15-Jun-17 14:59 28.619930 -73.466036 56 31050ft 498kts
15-Jun-17 15:00 28.694676 -73.333773 56 31048ft 498kts
15-Jun-17 15:01 28.769212 -73.201470 56 31048ft 498kts
15-Jun-17 15:02 28.843812 -73.068630 56 31048ft 498kts
15-Jun-17 15:03 28.917998 -72.936105 56 31049ft 498kts
15-Jun-17 15:04 28.992270 -72.803007 56 31049ft 498kts
15-Jun-17 15:05 29.066547 -72.669462 56 31050ft 498kts
15-Jun-17 15:06 29.140513 -72.536064 56 31049ft 498kts
15-Jun-17 15:07 29.214154 -72.402829 57 31049ft 497kts
15-Jun-17 15:08 29.287956 -72.268845 57 31047ft 497kts
15-Jun-17 15:09 29.361419 -72.135043 57 31047ft 497kts
15-Jun-17 15:10 29.434722 -72.001111 57 30970ft 497kts
15-Jun-17 15:11 29.507561 -71.867588 57 30968ft 497kts
15-Jun-17 15:12 29.580406 -71.733610 57 31065ft 495kts
15-Jun-17 15:13 29.653054 -71.599559 57 30965ft 496kts
15-Jun-17 15:13 29.713353 -71.487953 57 31079ft 497kts
15-Jun-17 15:15 29.798108 -71.330566 57 31075ft 496kts
15-Jun-17 15:16 29.870528 -71.195599 57 31075ft 496kts
15-Jun-17 15:16 29.930733 -71.083049 57 31075ft 496kts
15-Jun-17 15:17 30.003041 -70.947453 57 31076ft 496kts
15-Jun-17 15:18 30.075055 -70.811960 57 31076ft 496kts
15-Jun-17 15:19 30.147026 -70.676076 57 31076ft 496kts
15-Jun-17 15:20 30.218596 -70.540499 57 31076ft 496kts
15-Jun-17 15:21 30.290210 -70.404289 56 31083ft 496kts
15-Jun-17 15:22 30.361329 -70.268712 57 31076ft 494kts
15-Jun-17 15:23 30.432293 -70.132869 57 31074ft 494kts
15-Jun-17 15:24 30.503259 -69.996547 57 31075ft 494kts
15-Jun-17 15:25 30.573839 -69.860497 57 31076ft 494kts
15-Jun-17 15:26 30.644429 -69.723942 57 31076ft 494kts
15-Jun-17 15:27 30.714916 -69.587122 57 31076ft 494kts
15-Jun-17 15:28 30.785230 -69.450154 57 31077ft 494kts
15-Jun-17 15:29 30.855340 -69.313108 57 31073ft 494kts
15-Jun-17 15:30 30.925466 -69.175538 57 31074ft 494kts
15-Jun-17 15:31 30.995294 -69.038062 57 31074ft 494kts
15-Jun-17 15:32 31.064871 -68.900586 57 31075ft 494kts
15-Jun-17 15:33 31.133732 -68.764047 57 31076ft 494kts
15-Jun-17 15:34 31.203135 -68.625944 57 31077ft 494kts
15-Jun-17 15:35 31.272507 -68.487400 57 31077ft 494kts
15-Jun-17 15:36 31.340872 -68.350387 57 31077ft 495kts
15-Jun-17 15:37 31.409929 -68.211455 58 31074ft 495kts
15-Jun-17 15:38 31.478357 -68.071786 62 31070ft 495kts
15-Jun-17 15:39 31.523543 -67.919287 70 31076ft 497kts
15-Jun-17 15:40 31.566033 -67.765064 70 31076ft 497kts
15-Jun-17 15:41 31.608159 -67.610948 70 31076ft 497kts
15-Jun-17 15:42 31.650060 -67.456797 70 31077ft 497kts
15-Jun-17 15:43 31.691957 -67.301843 71 31073ft 497kts
15-Jun-17 15:44 31.733483 -67.147428 71 31074ft 497kts
15-Jun-17 15:45 31.774924 -66.992482 71 31075ft 498kts
15-Jun-17 15:46 31.816191 -66.837332 71 31075ft 498kts
15-Jun-17 15:47 31.857188 -66.682354 71 31076ft 498kts
15-Jun-17 15:48 31.897974 -66.527322 71 31076ft 498kts
15-Jun-17 15:49 31.938677 -66.371751 71 31077ft 498kts
15-Jun-17 15:50 31.978374 -66.219210 72 31074ft 498kts
15-Jun-17 15:51 32.018677 -66.063466 72 31074ft 498kts
15-Jun-17 15:52 32.058674 -65.908001 72 31075ft 498kts
15-Jun-17 15:53 32.098672 -65.751648 72 31075ft 498kts
15-Jun-17 15:54 32.138424 -65.595392 72 31077ft 498kts
15-Jun-17 15:55 32.177916 -65.439254 72 31077ft 498kts
15-Jun-17 15:56 32.217190 -65.283071 72 31074ft 498kts
15-Jun-17 15:57 32.256394 -65.126276 72 31075ft 498kts
15-Jun-17 15:58 32.295340 -64.969603 72 31075ft 498kts
15-Jun-17 15:59 32.334137 -64.812619 72 31076ft 498kts
15-Jun-17 16:00 32.380398 -64.659661 57 31078ft 495kts
15-Jun-17 16:01 32.451440 -64.519715 57 31076ft 495kts
15-Jun-17 16:02 32.522479 -64.380315 57 31077ft 495kts
15-Jun-17 16:03 32.593424 -64.240687 57 31074ft 496kts
15-Jun-17 16:04 32.664303 -64.100661 57 31074ft 496kts
15-Jun-17 16:05 32.734659 -63.961149 57 31075ft 495kts
15-Jun-17 16:06 32.805159 -63.820822 57 31075ft 495kts
15-Jun-17 16:07 32.875442 -63.680384 57 31076ft 495kts
15-Jun-17 16:08 32.945667 -63.539528 57 31076ft 495kts
15-Jun-17 16:09 33.015607 -63.398705 57 31077ft 495kts
15-Jun-17 16:10 33.085493 -63.257462 58 31074ft 495kts
15-Jun-17 16:11 33.155221 -63.115972 58 31075ft 495kts
15-Jun-17 16:12 33.224682 -62.974484 58 31075ft 495kts
15-Jun-17 16:13 33.294017 -62.832705 58 31076ft 495kts
15-Jun-17 16:14 33.363300 -62.690466 58 31076ft 495kts
15-Jun-17 16:15 33.432363 -62.548122 58 31077ft 495kts
15-Jun-17 16:16 33.501147 -62.405796 58 31077ft 495kts
15-Jun-17 16:17 33.569888 -62.262991 58 31074ft 495kts
15-Jun-17 16:18 33.638540 -62.119801 58 31074ft 495kts
15-Jun-17 16:19 33.706736 -61.976994 58 31075ft 495kts
15-Jun-17 16:20 33.775012 -61.833446 58 31076ft 495kts
15-Jun-17 16:21 33.842996 -61.689930 58 31076ft 495kts
15-Jun-17 16:22 33.910860 -61.546089 58 31076ft 495kts
15-Jun-17 16:23 33.978639 -61.401844 58 31077ft 495kts
15-Jun-17 16:24 34.046057 -61.257794 59 31074ft 495kts
15-Jun-17 16:25 34.113387 -61.113327 59 31075ft 495kts
15-Jun-17 16:26 34.180507 -60.968719 59 31076ft 495kts
15-Jun-17 16:27 34.247675 -60.823413 59 31076ft 495kts
15-Jun-17 16:28 34.314444 -60.678368 59 31076ft 495kts
15-Jun-17 16:29 34.381014 -60.533153 59 31077ft 495kts
15-Jun-17 16:30 34.447472 -60.387575 59 31077ft 495kts
15-Jun-17 16:31 34.513921 -60.241406 59 31074ft 495kts
15-Jun-17 16:32 34.580104 -60.095206 59 31074ft 495kts
15-Jun-17 16:33 34.646040 -59.948933 59 31075ft 495kts
15-Jun-17 16:34 34.711850 -59.802316 59 31075ft 495kts
15-Jun-17 16:35 34.777383 -59.655697 59 31076ft 495kts
15-Jun-17 16:36 34.842829 -59.508644 59 31076ft 495kts
15-Jun-17 16:37 34.908097 -59.361353 59 31077ft 495kts
15-Jun-17 16:38 34.973216 -59.213781 60 31074ft 495kts
15-Jun-17 16:39 35.038075 -59.066147 60 31074ft 495kts
15-Jun-17 16:40 35.102788 -58.918197 60 31075ft 495kts
15-Jun-17 16:41 35.167322 -58.770018 60 31076ft 495kts
15-Jun-17 16:42 35.231846 -58.621207 60 31077ft 495kts
15-Jun-17 16:43 35.296018 -58.472554 60 31077ft 495kts
15-Jun-17 16:44 35.359484 -58.324885 60 31074ft 495kts
15-Jun-17 16:45 35.423162 -58.176064 60 31074ft 495kts
15-Jun-17 16:46 35.486851 -58.026554 60 31075ft 495kts
15-Jun-17 16:47 35.550245 -57.877069 60 31075ft 495kts
15-Jun-17 16:48 35.613188 -57.727956 60 31071ft 488kts
15-Jun-17 16:49 35.675508 -57.579699 60 31076ft 489kts
15-Jun-17 16:50 35.737641 -57.431200 60 31076ft 489kts
15-Jun-17 16:51 35.799670 -57.282288 61 31073ft 489kts
15-Jun-17 16:52 35.861352 -57.133535 61 31073ft 489kts
15-Jun-17 16:53 35.922795 -56.984679 61 31074ft 489kts
15-Jun-17 16:54 35.984261 -56.835086 61 31074ft 488kts
15-Jun-17 16:55 36.045268 -56.685931 61 31074ft 488kts
15-Jun-17 16:56 36.106241 -56.536169 61 31076ft 488kts
15-Jun-17 16:57 36.166885 -56.386550 61 31078ft 488kts
15-Jun-17 16:58 36.227315 -56.236739 61 31169ft 487kts
15-Jun-17 16:59 36.287497 -56.086861 61 31210ft 485kts
15-Jun-17 17:00 36.347336 -55.937149 61 31211ft 485kts
15-Jun-17 17:01 36.407055 -55.787033 61 31211ft 485kts
15-Jun-17 17:02 36.466492 -55.636919 61 31211ft 485kts
15-Jun-17 17:03 36.525596 -55.486949 61 31211ft 485kts
15-Jun-17 17:04 36.584536 -55.336680 62 31210ft 485kts
15-Jun-17 17:05 36.643353 -55.186024 62 31209ft 485kts
15-Jun-17 17:06 36.702044 -55.034971 62 31209ft 484kts
15-Jun-17 17:07 36.760493 -54.883813 62 31209ft 485kts
15-Jun-17 17:08 36.818656 -54.732673 62 31210ft 484kts
15-Jun-17 17:09 36.876578 -54.581431 62 31210ft 484kts
15-Jun-17 17:10 36.934332 -54.429897 62 31210ft 484kts
15-Jun-17 17:12 36.991974 -54.277930 62 31208ft 484kts
15-Jun-17 17:13 37.049301 -54.126052 62 31208ft 484kts
15-Jun-17 17:14 37.106480 -53.973819 62 31210ft 484kts
15-Jun-17 17:15 37.163375 -53.821589 62 31239ft 483kts
15-Jun-17 17:16 37.220097 -53.669078 62 31239ft 484kts
15-Jun-17 17:17 37.276513 -53.516636 62 31239ft 483kts
15-Jun-17 17:18 37.332995 -53.363251 62 31239ft 483kts
15-Jun-17 17:19 37.389060 -53.210229 63 31237ft 483kts
15-Jun-17 17:20 37.444937 -53.056956 63 31237ft 483kts
15-Jun-17 17:21 37.500307 -52.904370 64 31240ft 464kts
15-Jun-17 17:22 37.553661 -52.756530 67 31252ft 477kts
15-Jun-17 17:23 37.607830 -52.605676 67 31235ft 471kts
15-Jun-17 17:24 37.661665 -52.455024 67 31236ft 472kts
15-Jun-17 17:25 37.715338 -52.304086 68 31237ft 471kts
15-Jun-17 17:26 37.768903 -52.152677 68 31238ft 472kts
15-Jun-17 17:27 37.822204 -52.001254 68 31238ft 472kts
15-Jun-17 17:28 37.875146 -51.850083 68 31238ft 472kts
15-Jun-17 17:29 37.928161 -51.697928 68 31238ft 472kts
15-Jun-17 17:30 37.980715 -51.546310 68 31174ft 472kts
15-Jun-17 17:31 38.032594 -51.395875 67 30994ft 465kts
15-Jun-17 17:32 38.084212 -51.245455 68 30996ft 466kts
15-Jun-17 17:33 38.135657 -51.094747 68 30994ft 466kts
15-Jun-17 17:34 38.187032 -50.943462 68 30993ft 466kts
15-Jun-17 17:35 38.238122 -50.792233 68 30993ft 466kts
15-Jun-17 17:36 38.288915 -50.641109 68 30993ft 466kts
15-Jun-17 17:37 38.339519 -50.489751 68 30992ft 466kts
15-Jun-17 17:38 38.390028 -50.337876 68 30993ft 466kts
15-Jun-17 17:39 38.440223 -50.186145 69 30995ft 466kts
15-Jun-17 17:40 38.490325 -50.033895 69 30994ft 466kts
15-Jun-17 17:41 38.540202 -49.881518 69 30994ft 466kts
15-Jun-17 17:42 38.589843 -49.729049 68 30993ft 466kts
15-Jun-17 17:43 38.639291 -49.576351 68 30993ft 466kts
15-Jun-17 17:44 38.688683 -49.422998 68 30992ft 466kts
15-Jun-17 17:45 38.737662 -49.270104 69 30995ft 466kts
15-Jun-17 17:46 38.786605 -49.116494 69 30994ft 465kts
15-Jun-17 17:47 38.835160 -48.963241 69 30994ft 466kts
15-Jun-17 17:48 38.883694 -48.809217 69 30994ft 466kts
15-Jun-17 17:49 38.931902 -48.655374 69 30994ft 466kts
15-Jun-17 17:50 38.980025 -48.500946 69 30993ft 466kts
15-Jun-17 17:51 39.027339 -48.348268 70 30993ft 466kts
15-Jun-17 17:52 39.074985 -48.193684 70 30996ft 465kts
15-Jun-17 17:53 39.122488 -48.038661 70 30993ft 465kts
15-Jun-17 17:54 39.169702 -47.883701 70 30993ft 465kts
15-Jun-17 17:55 39.216569 -47.729011 70 30992ft 465kts
15-Jun-17 17:56 39.263390 -47.573585 70 30992ft 465kts
15-Jun-17 17:57 39.310069 -47.417738 70 30991ft 465kts
15-Jun-17 17:58 39.356394 -47.262172 70 30995ft 465kts
15-Jun-17 17:59 39.402580 -47.106177 70 30994ft 465kts
15-Jun-17 18:00 39.448555 -46.949975 70 30994ft 465kts
15-Jun-17 18:01 39.494306 -46.793617 70 30993ft 465kts
15-Jun-17 18:02 39.539820 -46.637147 70 30993ft 465kts
15-Jun-17 18:03 39.585161 -46.480341 70 30992ft 465kts
15-Jun-17 18:04 39.630266 -46.323416 71 30995ft 465kts
15-Jun-17 18:05 39.675235 -46.166039 71 30995ft 465kts
15-Jun-17 18:06 39.719549 -46.009679 67 30977ft 464kts
15-Jun-17 18:07 39.765456 -45.847359 67 30993ft 484kts
15-Jun-17 18:08 39.811364 -45.683698 67 30994ft 482kts
15-Jun-17 18:09 39.857005 -45.519942 67 30993ft 482kts
15-Jun-17 18:10 39.902433 -45.355906 67 30993ft 482kts
15-Jun-17 18:11 39.947642 -45.191624 67 30991ft 483kts
15-Jun-17 18:11 39.985262 -45.054092 67 30992ft 483kts
15-Jun-17 18:12 40.038894 -44.894803 61 30993ft 481kts
15-Jun-17 18:13 40.096592 -44.737756 61 30992ft 481kts
15-Jun-17 18:14 40.154180 -44.580276 61 30996ft 481kts
15-Jun-17 18:15 40.211173 -44.423580 61 30997ft 481kts
15-Jun-17 18:16 40.268361 -44.265490 62 30994ft 482kts
15-Jun-17 18:17 40.325486 -44.106707 62 30995ft 482kts
15-Jun-17 18:18 40.382327 -43.947844 62 30995ft 482kts
15-Jun-17 18:19 40.438872 -43.788943 62 30995ft 482kts
15-Jun-17 18:20 40.495259 -43.629599 62 30995ft 482kts
15-Jun-17 18:21 40.551507 -43.469756 62 30995ft 482kts
15-Jun-17 18:22 40.607557 -43.309586 62 30992ft 482kts
15-Jun-17 18:23 40.663216 -43.149632 62 30993ft 483kts
15-Jun-17 18:24 40.718808 -42.988964 62 30993ft 483kts
15-Jun-17 18:25 40.774239 -42.827845 62 30993ft 483kts
15-Jun-17 18:26 40.829428 -42.666514 62 30993ft 483kts
15-Jun-17 18:27 40.884407 -42.504862 62 30994ft 483kts
15-Jun-17 18:28 40.939117 -42.343072 63 30993ft 483kts
15-Jun-17 18:29 40.993575 -42.181107 63 30991ft 484kts
15-Jun-17 18:30 41.048024 -42.018205 63 30991ft 484kts
15-Jun-17 18:31 41.101543 -41.857142 63 30992ft 484kts
15-Jun-17 18:32 41.155517 -41.693770 63 30996ft 484kts
15-Jun-17 18:33 41.209238 -41.530184 63 30997ft 484kts
15-Jun-17 18:34 41.262525 -41.366956 63 31013ft 484kts
15-Jun-17 18:35 41.315973 -41.202245 64 31288ft 487kts
15-Jun-17 18:36 41.369342 -41.036774 64 31291ft 487kts
15-Jun-17 18:37 41.421606 -40.873775 65 31294ft 479kts
15-Jun-17 18:38 41.473518 -40.710857 65 31291ft 479kts
15-Jun-17 18:39 41.525294 -40.547399 65 31291ft 479kts
15-Jun-17 18:40 41.576828 -40.383716 65 31439ft 483kts
15-Jun-17 18:41 41.628300 -40.219196 65 33588ft 478kts
15-Jun-17 18:42 41.679187 -40.055580 65 35270ft 478kts
15-Jun-17 18:43 41.729648 -39.892317 65 35285ft 474kts
15-Jun-17 18:44 41.779927 -39.728651 65 35291ft 475kts
15-Jun-17 18:45 41.829893 -39.565037 65 35290ft 475kts
15-Jun-17 18:46 41.879495 -39.401487 65 35291ft 475kts
15-Jun-17 18:47 41.929012 -39.237267 66 35289ft 475kts
15-Jun-17 18:48 41.978312 -39.072723 66 35289ft 475kts
15-Jun-17 18:49 42.012223 -38.901281 77 35292ft 479kts
15-Jun-17 18:50 42.035570 -38.725514 78 35290ft 478kts
15-Jun-17 18:51 42.058052 -38.549874 78 35290ft 478kts
15-Jun-17 18:52 42.080253 -38.373835 78 35290ft 478kts
15-Jun-17 18:53 42.102032 -38.198930 79 35290ft 479kts
15-Jun-17 18:54 42.123732 -38.022331 79 35292ft 479kts
15-Jun-17 18:55 42.145153 -37.845684 79 35293ft 478kts
15-Jun-17 18:56 42.166260 -37.669285 79 35293ft 478kts
15-Jun-17 18:57 42.187096 -37.492765 79 35294ft 479kts
15-Jun-17 18:58 42.207712 -37.315705 79 35291ft 478kts
15-Jun-17 18:59 42.228057 -37.138490 79 35292ft 479kts
15-Jun-17 19:00 42.248137 -36.961109 79 35292ft 479kts
15-Jun-17 19:01 42.267910 -36.783923 79 35292ft 479kts
15-Jun-17 19:02 42.287410 -36.606629 79 35293ft 479kts
15-Jun-17 19:03 42.306649 -36.429103 79 35293ft 479kts
15-Jun-17 19:04 42.325613 -36.251465 80 35291ft 479kts
15-Jun-17 19:05 42.344319 -36.073695 80 35291ft 478kts
15-Jun-17 19:06 42.362770 -35.895388 80 35292ft 479kts
15-Jun-17 19:07 42.380867 -35.717872 80 35292ft 479kts
15-Jun-17 19:08 42.398767 -35.539486 80 35292ft 479kts
15-Jun-17 19:09 42.416332 -35.361576 80 35292ft 479kts
15-Jun-17 19:10 42.433652 -35.183258 81 35291ft 479kts
15-Jun-17 19:11 42.450714 -35.004640 81 35291ft 479kts
15-Jun-17 19:12 42.467501 -34.825920 81 35292ft 479kts
15-Jun-17 19:13 42.483980 -34.647421 81 35292ft 479kts
15-Jun-17 19:14 42.500188 -34.468762 81 35292ft 479kts
15-Jun-17 19:15 42.516134 -34.289841 82 35290ft 479kts
15-Jun-17 19:16 42.531775 -34.111126 82 35291ft 479kts
15-Jun-17 19:17 42.547154 -33.932141 82 35292ft 479kts
15-Jun-17 19:18 42.562245 -33.753178 82 35291ft 479kts
15-Jun-17 19:19 42.577059 -33.574111 82 35292ft 479kts
15-Jun-17 19:20 42.591622 -33.394608 82 35292ft 479kts
15-Jun-17 19:21 42.605883 -33.215315 82 35291ft 479kts
15-Jun-17 19:22 42.619835 -33.036303 82 35291ft 479kts
15-Jun-17 19:23 42.633545 -32.856731 82 35291ft 479kts
15-Jun-17 19:24 42.646973 -32.677077 82 35291ft 479kts
15-Jun-17 19:25 42.660116 -32.497459 82 35289ft 478kts
15-Jun-17 19:26 42.672959 -32.317963 83 35290ft 479kts
15-Jun-17 19:27 42.685546 -32.138110 83 35290ft 479kts
15-Jun-17 19:28 42.697850 -31.958183 83 35291ft 479kts
15-Jun-17 19:29 42.709862 -31.778322 83 35291ft 479kts
15-Jun-17 19:30 42.721611 -31.598110 83 35291ft 479kts
15-Jun-17 19:31 42.733031 -31.418575 83 35292ft 479kts
15-Jun-17 19:32 42.744220 -31.238198 84 35290ft 479kts
15-Jun-17 19:33 42.755091 -31.058323 84 35291ft 479kts
15-Jun-17 19:34 42.765704 -30.877937 84 35292ft 479kts
15-Jun-17 19:35 42.776014 -30.697877 84 35291ft 478kts
15-Jun-17 19:36 42.786068 -30.517274 84 35291ft 479kts
15-Jun-17 19:37 42.795827 -30.336810 85 35291ft 479kts
15-Jun-17 19:38 42.805298 -30.156459 85 35290ft 479kts
15-Jun-17 19:39 42.814488 -29.975929 85 35291ft 479kts
15-Jun-17 19:40 42.823384 -29.795552 85 35291ft 479kts
15-Jun-17 19:41 42.832025 -29.614545 85 35291ft 479kts
15-Jun-17 19:42 42.840364 -29.433841 85 35291ft 479kts
15-Jun-17 19:43 42.848396 -29.253684 85 35290ft 479kts
15-Jun-17 19:44 42.856159 -29.073116 85 35318ft 479kts
15-Jun-17 19:45 42.863630 -28.892601 85 35315ft 478kts
15-Jun-17 19:46 42.870850 -28.711359 85 35317ft 479kts
15-Jun-17 19:47 42.877772 -28.530318 85 35318ft 479kts
15-Jun-17 19:48 42.884378 -28.350107 85 35318ft 479kts
15-Jun-17 19:49 42.890680 -28.170599 86 35317ft 479kts
15-Jun-17 19:50 42.896743 -27.989649 86 35317ft 479kts
15-Jun-17 19:51 42.902524 -27.808570 86 35318ft 479kts
15-Jun-17 19:52 42.908021 -27.627395 86 35318ft 479kts
15-Jun-17 19:53 42.913225 -27.446454 86 35318ft 479kts
15-Jun-17 19:54 42.918160 -27.265020 87 35317ft 479kts
15-Jun-17 19:55 42.922799 -27.083854 87 35317ft 479kts
15-Jun-17 19:56 42.927149 -26.902749 87 35317ft 479kts
15-Jun-17 19:57 42.931211 -26.721690 87 35318ft 479kts
15-Jun-17 19:58 42.934990 -26.540503 87 35318ft 479kts
15-Jun-17 19:59 42.938483 -26.359381 87 35318ft 479kts
15-Jun-17 20:00 42.941702 -26.177771 87 35317ft 479kts
15-Jun-17 20:01 42.944621 -25.996711 87 35317ft 479kts
15-Jun-17 20:02 42.947272 -25.814771 88 35321ft 482kts
15-Jun-17 20:03 42.949632 -25.632058 88 35318ft 481kts
15-Jun-17 20:04 42.951702 -25.449817 88 35319ft 481kts
15-Jun-17 20:05 42.953485 -25.267695 89 35317ft 481kts
15-Jun-17 20:06 42.954983 -25.084935 89 35318ft 481kts
15-Jun-17 20:07 42.956185 -24.902817 88 35318ft 482kts
15-Jun-17 20:08 42.957101 -24.719678 88 35318ft 482kts
15-Jun-17 20:10 42.957725 -24.537171 88 35319ft 482kts
15-Jun-17 20:11 42.958059 -24.354269 88 35319ft 482kts
15-Jun-17 20:12 42.958107 -24.171513 89 35317ft 482kts
15-Jun-17 20:13 42.957859 -23.988949 89 35318ft 482kts
15-Jun-17 20:14 42.957320 -23.805966 89 35318ft 482kts
15-Jun-17 20:15 42.956492 -23.623562 89 35319ft 482kts
15-Jun-17 20:16 42.955371 -23.440647 89 35319ft 482kts
15-Jun-17 20:17 42.953960 -23.257443 90 35317ft 483kts
15-Jun-17 20:18 42.952262 -23.074979 90 35299ft 484kts
15-Jun-17 20:19 42.950261 -22.891455 90 35290ft 485kts
15-Jun-17 20:20 42.947966 -22.707929 90 35291ft 485kts
15-Jun-17 20:21 42.945369 -22.523837 90 35292ft 485kts
15-Jun-17 20:22 42.942487 -22.340347 91 35292ft 485kts
15-Jun-17 20:23 42.939308 -22.156362 91 35290ft 485kts
15-Jun-17 20:24 42.935837 -21.972736 91 35291ft 485kts
15-Jun-17 20:25 42.932066 -21.788950 91 35291ft 485kts
15-Jun-17 20:26 42.928002 -21.605177 91 35292ft 485kts
15-Jun-17 20:27 42.923655 -21.421861 91 35292ft 485kts
15-Jun-17 20:28 42.919003 -21.237938 91 35290ft 485kts
15-Jun-17 20:29 42.914063 -21.054363 91 35291ft 486kts
15-Jun-17 20:30 42.908812 -20.870267 91 35291ft 486kts
15-Jun-17 20:31 42.903279 -20.686628 91 35292ft 486kts
15-Jun-17 20:32 42.897441 -20.502673 91 35292ft 486kts
15-Jun-17 20:33 42.891337 -20.319536 92 35290ft 486kts
15-Jun-17 20:34 42.884935 -20.136195 92 35314ft 486kts
15-Jun-17 20:35 42.878214 -19.952286 92 35318ft 486kts
15-Jun-17 20:36 42.871201 -19.768477 92 35318ft 486kts
15-Jun-17 20:37 42.863906 -19.585004 92 35319ft 486kts
15-Jun-17 20:38 42.856323 -19.401680 92 35320ft 486kts
15-Jun-17 20:39 42.848417 -19.217636 93 35317ft 486kts
15-Jun-17 20:40 42.840274 -19.034961 93 35318ft 486kts
15-Jun-17 20:41 42.831792 -18.851330 93 35318ft 486kts
15-Jun-17 20:42 42.823040 -18.668214 93 35145ft 487kts
15-Jun-17 20:43 42.813967 -18.484577 93 35132ft 487kts
15-Jun-17 20:44 42.804735 -18.303560 93 35127ft 487kts
15-Jun-17 20:45 42.795088 -18.120131 93 35128ft 487kts
15-Jun-17 20:46 42.785155 -17.936589 94 35135ft 482kts
15-Jun-17 20:47 42.775055 -17.755973 94 35132ft 481kts
15-Jun-17 20:48 42.764670 -17.575111 94 35130ft 480kts
15-Jun-17 20:49 42.754004 -17.394356 94 35130ft 480kts
15-Jun-17 20:50 42.743052 -17.213542 95 35129ft 480kts
15-Jun-17 20:51 42.731849 -17.033460 95 35129ft 480kts
15-Jun-17 20:52 42.720319 -16.852680 95 35129ft 480kts
15-Jun-17 20:53 42.708540 -16.672519 95 35130ft 480kts
15-Jun-17 20:54 42.696443 -16.491892 95 35130ft 480kts
15-Jun-17 20:55 42.684099 -16.311864 96 35129ft 480kts
15-Jun-17 20:56 42.671476 -16.131923 96 35129ft 480kts
15-Jun-17 20:57 42.658563 -15.951960 96 35129ft 479kts
15-Jun-17 20:58 42.645367 -15.772073 96 35130ft 479kts
15-Jun-17 20:59 42.631880 -15.592113 96 35130ft 479kts
15-Jun-17 21:00 42.618133 -15.412523 96 35130ft 479kts
15-Jun-17 21:01 42.604113 -15.233092 96 35129ft 479kts
15-Jun-17 21:02 42.589796 -15.053523 96 35129ft 479kts
15-Jun-17 21:03 42.575180 -14.873823 96 35129ft 479kts
15-Jun-17 21:04 42.560324 -14.694693 96 35130ft 479kts
15-Jun-17 21:05 42.545090 -14.514396 98 35140ft 490kts
15-Jun-17 21:05 42.531988 -14.362150 98 35129ft 486kts
15-Jun-17 21:06 42.516056 -14.180135 98 35129ft 486kts
15-Jun-17 21:08 42.491687 -13.970149 105 35131ft 485kts
15-Jun-17 21:08 42.463571 -13.823426 107 35129ft 483kts
15-Jun-17 21:09 42.427679 -13.648263 107 35130ft 483kts
15-Jun-17 21:10 42.391380 -13.473783 107 35125ft 482kts
15-Jun-17 21:12 42.348642 -13.270390 108 35127ft 482kts
15-Jun-17 21:13 42.311797 -13.096603 108 35128ft 483kts
15-Jun-17 21:13 42.280855 -12.951760 108 35128ft 482kts
15-Jun-17 21:15 42.237175 -12.748960 108 35129ft 482kts
15-Jun-17 21:15 42.205867 -12.604777 108 35129ft 482kts
15-Jun-17 21:17 42.161726 -12.403128 108 35129ft 481kts
15-Jun-17 21:18 42.123668 -12.230796 108 35127ft 481kts
15-Jun-17 21:18 42.091761 -12.087355 108 35127ft 481kts
15-Jun-17 21:19 42.053116 -11.914870 108 35127ft 481kts
15-Jun-17 21:20 42.014567 -11.744138 108 35124ft 480kts
15-Jun-17 21:21 41.975467 -11.572344 108 35128ft 480kts
15-Jun-17 21:22 41.936172 -11.401011 108 35129ft 480kts
15-Jun-17 21:23 41.899410 -11.241926 109 35126ft 480kts
15-Jun-17 21:24 41.859778 -11.071658 109 35130ft 480kts
15-Jun-17 21:25 41.819753 -10.901008 109 35131ft 479kts
15-Jun-17 21:26 41.779674 -10.731402 109 35131ft 479kts
15-Jun-17 21:27 41.739290 -10.561776 109 35131ft 479kts
15-Jun-17 21:28 41.698605 -10.392146 109 35131ft 479kts
15-Jun-17 21:29 41.659154 -10.228843 110 35129ft 478kts
15-Jun-17 21:30 41.618174 -10.060429 110 35133ft 479kts
15-Jun-17 21:31 41.577028 -9.892551 110 35101ft 478kts
15-Jun-17 21:32 41.535378 -9.723846 110 35103ft 478kts
15-Jun-17 21:33 41.493660 -9.556067 110 35103ft 478kts
15-Jun-17 21:34 41.451683 -9.388441 110 35103ft 478kts
15-Jun-17 21:35 41.409898 -9.222753 110 35101ft 477kts
15-Jun-17 21:36 41.367557 -9.056029 110 35101ft 477kts
15-Jun-17 21:37 41.324883 -8.889163 110 35102ft 477kts
15-Jun-17 21:38 41.282756 -8.722068 105 35096ft 478kts
15-Jun-17 21:39 41.286200 -8.545875 83 35108ft 484kts
15-Jun-17 21:40 41.303813 -8.368491 83 35102ft 484kts
15-Jun-17 21:41 41.319616 -8.201666 84 35101ft 484kts
15-Jun-17 21:42 41.336116 -8.024165 84 35101ft 484kts
15-Jun-17 21:43 41.352290 -7.847116 84 35102ft 484kts
15-Jun-17 21:44 41.368280 -7.669003 84 35102ft 484kts
15-Jun-17 21:45 41.383948 -7.491328 84 35103ft 485kts
15-Jun-17 21:46 41.399041 -7.316644 85 35101ft 485kts
15-Jun-17 21:47 41.414147 -7.138493 85 35101ft 485kts
15-Jun-17 21:48 41.428940 -6.960733 85 35102ft 485kts
15-Jun-17 21:49 41.443462 -6.782856 85 35104ft 485kts
15-Jun-17 21:50 41.457711 -6.604855 85 35250ft 486kts
15-Jun-17 21:51 41.471789 -6.425511 85 35264ft 487kts
15-Jun-17 21:52 41.485297 -6.249909 85 35263ft 487kts
15-Jun-17 21:53 41.498825 -6.070713 85 35233ft 484kts
15-Jun-17 21:54 41.511574 -5.898248 85 34460ft 465kts
15-Jun-17 21:55 41.524106 -5.724398 86 32307ft 479kts
15-Jun-17 21:56 41.496079 -5.554810 117 30182ft 463kts
15-Jun-17 21:57 41.439195 -5.404296 118 28449ft 449kts
15-Jun-17 21:58 41.392520 -5.283884 119 27090ft 435kts
15-Jun-17 21:59 41.337956 -5.144034 119 25490ft 420kts
15-Jun-17 22:00 41.285016 -5.009012 119 23912ft 405kts
15-Jun-17 22:01 41.233590 -4.878433 119 22194ft 395kts
15-Jun-17 22:02 41.183316 -4.751337 119 20518ft 385kts
15-Jun-17 22:03 41.134072 -4.627374 119 18878ft 376kts
15-Jun-17 22:04 41.085810 -4.506374 119 17254ft 368kts
15-Jun-17 22:05 41.038107 -4.387265 120 15617ft 362kts
15-Jun-17 22:06 40.992261 -4.273259 121 14061ft 357kts
15-Jun-17 22:07 40.949868 -4.155600 106 13216ft 362kts
15-Jun-17 22:08 40.927196 -4.026190 106 12058ft 360kts
15-Jun-17 22:09 40.904843 -3.899389 106 11082ft 339kts
15-Jun-17 22:10 40.885846 -3.791473 116 10526ft 285kts
15-Jun-17 22:11 40.840558 -3.710489 131 8149ft 274kts
15-Jun-17 22:12 40.790114 -3.637468 132 5944ft 266kts
15-Jun-17 22:13 40.737408 -3.574990 157 4209ft 254kts
15-Jun-17 22:14 40.677771 -3.559739 178 4335ft 209kts
15-Jun-17 22:15 40.625513 -3.559379 179 3818ft 172kts
15-Jun-17 22:16 40.581109 -3.559301 179 2968ft 153kts
15-Jun-17 22:17 40.538219 -3.559273 179 2137ft 154kts
15-Jun-17 22:18 40.509844 -3.559123 179 1916ft 35kts
15-Jun-17 22:19 40.502578 -3.560991 210 1925ft 20kts
15-Jun-17 22:20 40.501200 -3.565245 207 1931ft 16kts
15-Jun-17 22:21 40.500191 -3.568880 270 1950ft 9kts
15-Jun-17 22:22 40.495971 -3.569782 180 1963ft 20kts
15-Jun-17 22:23 40.494925 -3.568802 88 1960ft 0kts
15-Jun-17 22:24 40.494925 -3.568802 88 1960ft 0kts

Navigation Log

Ident Type
Flight plan parsing failed, navigation log unavailable